Time;durP1;ratioP1;P1;durP2;ratioP2;P2;SDS_P1;SDS_P2;PMS_P1;PMS_P2;Temp;Humidity;BMP_temperature;BMP_pressure;BME280_temperature;BME280_humidity;BME280_pressure;Samples;Min_cycle;Max_cycle;Signal;HPM_P1;HPM_P2
2023/01/22 00:02:06;;;;;;;;;;;-0.20;99.90;;;;;;5123875;27;19978;-80
2023/01/22 00:04:32;;;;;;;;;;;-0.20;99.90;;;;;;5139759;27;19923;-80
2023/01/22 00:06:57;;;;;;;;;;;-0.20;99.90;;;;;;5121728;27;19927;-80
2023/01/22 00:09:23;;;;;;;;;;;-0.30;99.90;;;;;;5122696;27;19977;-80
2023/01/22 00:11:49;;;;;;;;;;;-0.30;99.90;;;;;;5106411;27;19927;-80
2023/01/22 00:14:14;;;;;;;;;;;-0.30;99.90;;;;;;5124282;27;19924;-79
2023/01/22 00:16:40;;;;;;;;;;;-0.30;99.90;;;;;;5104156;27;20345;-80
2023/01/22 00:19:06;;;;;;;;;;;-0.30;99.90;;;;;;5119792;27;19923;-79
2023/01/22 00:21:33;;;;;;;;;;;-0.30;99.90;;;;;;5101550;27;19929;-79
2023/01/22 00:23:58;;;;;;;;;;;-0.30;99.90;;;;;;5118856;27;19930;-79
2023/01/22 00:26:24;;;;;;;;;;;-0.30;99.90;;;;;;5113155;28;19928;-79
2023/01/22 00:28:49;;;;;;;;;;;-0.40;99.90;;;;;;5119476;27;19935;-80
2023/01/22 00:31:15;;;;;;;;;;;-0.40;99.90;;;;;;5122917;27;19930;-80
2023/01/22 00:33:41;;;;;;;;;;;-0.40;99.90;;;;;;5122837;27;20418;-80
2023/01/22 00:36:08;;;;;;;;;;;-0.40;99.90;;;;;;5122685;27;19984;-79
2023/01/22 00:38:33;;;;;;;;;;;-0.40;99.90;;;;;;5120627;27;19945;-79
2023/01/22 00:41:03;;;;;;;;;;;-0.40;99.90;;;;;;5100818;27;20432;-79
2023/01/22 00:43:29;;;;;;;;;;;-0.40;99.90;;;;;;5122532;27;20422;-78
2023/01/22 00:45:55;;;;;;;;;;;-0.50;99.90;;;;;;5142787;27;19988;-79
2023/01/22 00:48:20;;;;;;;;;;;-0.50;99.90;;;;;;5101838;28;19951;-79
2023/01/22 00:50:47;;;;;;;;;;;-0.50;99.90;;;;;;5115885;27;19924;-79
2023/01/22 00:53:12;;;;;;;;;;;-0.50;99.90;;;;;;5122448;27;19923;-79
2023/01/22 00:55:38;;;;;;;;;;;-0.50;99.90;;;;;;5122110;27;19924;-79
2023/01/22 00:58:03;;;;;;;;;;;-0.50;99.90;;;;;;5120586;27;19930;-79
2023/01/22 01:00:29;;;;;;;;;;;-0.50;99.90;;;;;;5119349;28;20294;-79
2023/01/22 01:05:39;;;;;;;;;;;-0.50;99.90;;;;;;5107920;27;19931;-79
2023/01/22 01:08:04;;;;;;;;;;;-0.60;99.90;;;;;;5105563;27;19923;-79
2023/01/22 01:10:30;;;;;;;;;;;-0.50;99.90;;;;;;5121725;27;20321;-79
2023/01/22 01:12:55;;;;;;;;;;;-0.60;99.90;;;;;;5111688;27;19923;-79
2023/01/22 01:15:21;;;;;;;;;;;-0.60;99.90;;;;;;5121532;27;19935;-79
2023/01/22 01:17:46;;;;;;;;;;;-0.70;99.90;;;;;;5121429;27;19935;-79
2023/01/22 01:20:12;;;;;;;;;;;-0.70;99.90;;;;;;5122514;27;20012;-79
2023/01/22 01:22:38;;;;;;;;;;;-0.70;99.90;;;;;;5114168;27;20344;-79
2023/01/22 01:25:04;;;;;;;;;;;-0.70;99.90;;;;;;5122349;27;19935;-79
2023/01/22 01:27:30;;;;;;;;;;;-0.70;99.90;;;;;;5101185;28;20396;-79
2023/01/22 01:29:56;;;;;;;;;;;-0.70;99.90;;;;;;5111447;27;19975;-79
2023/01/22 01:32:22;;;;;;;;;;;-0.70;99.90;;;;;;5121364;28;19927;-79
2023/01/22 01:34:48;;;;;;;;;;;-0.70;99.90;;;;;;5130488;27;19934;-79
2023/01/22 01:37:14;;;;;;;;;;;-0.60;99.90;;;;;;5130922;27;19958;-79
2023/01/22 01:39:40;;;;;;;;;;;-0.70;99.90;;;;;;5104774;27;20299;-79
2023/01/22 01:42:06;;;;;;;;;;;-0.70;99.90;;;;;;5121826;28;19923;-79
2023/01/22 01:44:31;;;;;;;;;;;-0.80;99.90;;;;;;5118647;28;19958;-79
2023/01/22 01:47:00;;;;;;;;;;;-0.80;99.90;;;;;;5121624;28;19927;-79
2023/01/22 01:49:31;;;;;;;;;;;-0.80;99.90;;;;;;5120775;28;19930;-79
2023/01/22 01:51:59;;;;;;;;;;;-0.80;99.90;;;;;;5112765;28;19924;-79
2023/01/22 01:54:26;;;;;;;;;;;-0.80;99.90;;;;;;5121071;28;19936;-79
2023/01/22 01:56:54;;;;;;;;;;;-0.90;99.90;;;;;;5137601;28;19924;-79
2023/01/22 01:59:20;;;;;;;;;;;-0.90;99.90;;;;;;5090935;28;19987;-79
2023/01/22 02:01:48;;;;;;;;;;;-0.90;99.90;;;;;;5120082;28;19939;-79
2023/01/22 02:04:14;;;;;;;;;;;-0.90;99.90;;;;;;5114150;28;20196;-79
2023/01/22 02:06:40;;;;;;;;;;;-0.90;99.90;;;;;;5113656;28;19993;-79
2023/01/22 02:09:05;;;;;;;;;;;-0.90;99.90;;;;;;5103866;28;19982;-79
2023/01/22 02:11:32;;;;;;;;;;;-0.90;99.90;;;;;;5092522;28;19924;-79
2023/01/22 02:13:59;;;;;;;;;;;-0.90;99.90;;;;;;5137795;27;19932;-79
2023/01/22 02:16:24;;;;;;;;;;;-1.00;99.90;;;;;;5119355;27;20001;-79
2023/01/22 02:18:50;;;;;;;;;;;-1.00;99.90;;;;;;5126045;27;19924;-79
2023/01/22 02:21:35;;;;;;;;;;;-1.00;99.90;;;;;;5119969;27;20396;-79
2023/01/22 02:24:01;;;;;;;;;;;-1.00;99.90;;;;;;5126046;27;19923;-79
2023/01/22 02:26:27;;;;;;;;;;;-1.00;99.90;;;;;;5117517;27;19928;-79
2023/01/22 02:28:53;;;;;;;;;;;-0.90;99.90;;;;;;5125955;27;19939;-79
2023/01/22 02:31:18;;;;;;;;;;;-0.90;99.90;;;;;;5125116;27;20027;-79
2023/01/22 02:33:44;;;;;;;;;;;-0.80;99.90;;;;;;5104711;28;20354;-79
2023/01/22 02:36:09;;;;;;;;;;;-0.70;99.90;;;;;;5105916;27;19927;-79
2023/01/22 02:38:35;;;;;;;;;;;-0.60;99.90;;;;;;5119033;27;19923;-79
2023/01/22 02:41:00;;;;;;;;;;;-0.50;99.90;;;;;;5121954;28;19979;-79
2023/01/22 02:43:26;;;;;;;;;;;-0.40;99.90;;;;;;5126198;27;19924;-78
2023/01/22 02:45:52;;;;;;;;;;;-0.40;99.90;;;;;;5109533;27;20471;-79
2023/01/22 02:48:18;;;;;;;;;;;-0.40;99.90;;;;;;5106433;27;19923;-79
2023/01/22 02:50:44;;;;;;;;;;;-0.30;99.90;;;;;;5116098;28;20453;-79
2023/01/22 02:53:09;;;;;;;;;;;-0.20;99.90;;;;;;5119544;27;19931;-79
2023/01/22 02:55:36;;;;;;;;;;;-0.10;99.90;;;;;;5100565;28;19924;-79
2023/01/22 02:58:01;;;;;;;;;;;-0.20;99.90;;;;;;5114962;28;19924;-79
2023/01/22 03:00:27;;;;;;;;;;;-0.10;99.90;;;;;;5121749;27;19930;-79
2023/01/22 03:02:53;;;;;;;;;;;0.00;99.90;;;;;;5108446;27;19970;-79
2023/01/22 03:05:18;;;;;;;;;;;0.10;99.90;;;;;;5106886;27;19931;-79
2023/01/22 03:07:44;;;;;;;;;;;0.10;99.90;;;;;;5107773;27;19944;-79
2023/01/22 03:10:17;;;;;;;;;;;0.20;99.90;;;;;;5121058;27;19928;-79
2023/01/22 03:21:15;;;;;;;;;;;0.40;99.90;;;;;;5121595;27;19947;-79
2023/01/22 03:23:45;;;;;;;;;;;0.40;99.90;;;;;;5142491;27;19927;-79
2023/01/22 03:26:10;;;;;;;;;;;0.40;99.90;;;;;;5122864;27;19935;-80
2023/01/22 03:28:36;;;;;;;;;;;0.40;99.90;;;;;;5124867;27;19927;-79
2023/01/22 03:31:02;;;;;;;;;;;0.40;99.90;;;;;;5113036;27;19980;-79
2023/01/22 03:33:27;;;;;;;;;;;0.40;99.90;;;;;;5120974;27;19934;-80
2023/01/22 03:35:57;;;;;;;;;;;0.40;99.90;;;;;;5122732;27;19955;-79
2023/01/22 03:38:23;;;;;;;;;;;0.50;99.90;;;;;;5103657;27;20010;-79
2023/01/22 03:40:48;;;;;;;;;;;0.50;99.90;;;;;;5119396;27;19984;-79
2023/01/22 03:43:14;;;;;;;;;;;0.50;99.90;;;;;;5115017;27;20401;-79
2023/01/22 03:45:40;;;;;;;;;;;0.60;99.90;;;;;;5123708;27;20004;-79
2023/01/22 03:48:05;;;;;;;;;;;0.50;99.90;;;;;;5122550;27;19979;-79
2023/01/22 03:50:31;;;;;;;;;;;0.60;99.90;;;;;;5105551;27;19931;-79
2023/01/22 03:52:56;;;;;;;;;;;0.50;99.90;;;;;;5119493;27;19986;-79
2023/01/22 03:55:24;;;;;;;;;;;0.60;99.90;;;;;;5123276;27;19924;-79
2023/01/22 03:57:49;;;;;;;;;;;0.60;99.90;;;;;;5124166;27;19937;-79
2023/01/22 04:00:15;;;;;;;;;;;0.60;99.90;;;;;;5106113;27;19928;-79
2023/01/22 04:02:41;;;;;;;;;;;0.60;99.90;;;;;;5123763;27;19924;-79
2023/01/22 04:05:06;;;;;;;;;;;0.60;99.90;;;;;;5118854;27;19935;-79
2023/01/22 04:07:32;;;;;;;;;;;0.60;99.90;;;;;;5123156;27;20018;-80
2023/01/22 04:09:57;;;;;;;;;;;0.70;99.90;;;;;;5106112;27;19939;-79
2023/01/22 04:12:23;;;;;;;;;;;0.70;99.90;;;;;;5104907;27;19923;-79
2023/01/22 04:14:48;;;;;;;;;;;0.70;99.90;;;;;;5088610;27;19927;-79
2023/01/22 04:17:14;;;;;;;;;;;0.70;99.90;;;;;;5108386;27;19927;-79
2023/01/22 04:19:39;;;;;;;;;;;0.70;99.90;;;;;;5123044;27;19948;-79
2023/01/22 04:22:05;;;;;;;;;;;0.70;99.90;;;;;;5104411;27;19924;-79
2023/01/22 04:24:31;;;;;;;;;;;0.60;99.90;;;;;;5117402;27;19923;-79
2023/01/22 04:26:56;;;;;;;;;;;0.70;99.90;;;;;;5139650;27;19968;-79
2023/01/22 04:29:22;;;;;;;;;;;0.60;99.90;;;;;;5104321;27;20002;-79
2023/01/22 04:31:48;;;;;;;;;;;0.60;99.90;;;;;;5121861;27;19946;-79
2023/01/22 04:34:14;;;;;;;;;;;0.60;99.90;;;;;;5121275;27;19930;-79
2023/01/22 04:36:39;;;;;;;;;;;0.70;99.90;;;;;;5117990;27;19927;-80
2023/01/22 04:39:05;;;;;;;;;;;0.70;99.90;;;;;;5100576;28;19962;-79
2023/01/22 04:41:30;;;;;;;;;;;0.70;99.90;;;;;;5122278;27;19923;-79
2023/01/22 04:43:56;;;;;;;;;;;0.70;99.90;;;;;;5115251;27;19924;-79
2023/01/22 04:46:21;;;;;;;;;;;0.70;99.90;;;;;;5104619;27;19924;-80
2023/01/22 04:48:47;;;;;;;;;;;0.70;99.90;;;;;;5096608;28;19924;-79
2023/01/22 04:51:13;;;;;;;;;;;0.70;99.90;;;;;;5099725;27;19931;-80
2023/01/22 04:53:38;;;;;;;;;;;0.70;99.90;;;;;;5099087;28;19928;-80
2023/01/22 04:56:04;;;;;;;;;;;0.60;99.90;;;;;;5092097;28;20010;-80
2023/01/22 04:58:29;;;;;;;;;;;0.70;99.90;;;;;;5102168;27;19927;-80
2023/01/22 05:00:56;;;;;;;;;;;0.70;99.90;;;;;;5120296;27;19923;-79
2023/01/22 05:03:21;;;;;;;;;;;0.70;99.90;;;;;;5121470;27;19924;-79
2023/01/22 05:05:47;;;;;;;;;;;0.70;99.90;;;;;;5119513;27;19930;-79
2023/01/22 05:08:13;;;;;;;;;;;0.70;99.90;;;;;;5119245;27;19931;-79
2023/01/22 05:10:38;;;;;;;;;;;0.70;99.90;;;;;;5123530;27;19932;-79
2023/01/22 05:13:05;;;;;;;;;;;0.70;99.90;;;;;;5119145;27;20389;-80
2023/01/22 05:15:30;;;;;;;;;;;0.70;99.90;;;;;;5119462;27;19930;-80
2023/01/22 05:17:56;;;;;;;;;;;0.70;99.90;;;;;;5117441;27;20367;-79
2023/01/22 05:20:21;;;;;;;;;;;0.70;99.90;;;;;;5119038;27;19945;-80
2023/01/22 05:22:47;;;;;;;;;;;0.70;99.90;;;;;;5118310;27;19923;-79
2023/01/22 05:25:13;;;;;;;;;;;0.70;99.90;;;;;;5110380;27;20031;-80
2023/01/22 05:27:39;;;;;;;;;;;0.70;99.90;;;;;;5117987;27;20000;-80
2023/01/22 05:30:05;;;;;;;;;;;0.70;99.90;;;;;;5120749;27;19935;-80
2023/01/22 05:32:30;;;;;;;;;;;0.70;99.90;;;;;;5091507;27;19924;-80
2023/01/22 05:34:56;;;;;;;;;;;0.70;99.90;;;;;;5129912;27;19991;-80
2023/01/22 05:37:21;;;;;;;;;;;0.70;99.90;;;;;;5107296;28;19957;-80
2023/01/22 05:39:47;;;;;;;;;;;0.70;99.90;;;;;;5120439;27;19958;-79
2023/01/22 05:42:14;;;;;;;;;;;0.70;99.90;;;;;;5117347;28;19924;-79
2023/01/22 05:44:40;;;;;;;;;;;0.60;99.90;;;;;;5120707;28;19928;-80
2023/01/22 05:47:06;;;;;;;;;;;0.70;99.90;;;;;;5100046;28;19971;-79
2023/01/22 05:49:31;;;;;;;;;;;0.70;99.90;;;;;;5109750;28;19924;-80
2023/01/22 05:51:57;;;;;;;;;;;0.60;99.90;;;;;;5100860;28;19974;-80
2023/01/22 05:54:22;;;;;;;;;;;0.70;99.90;;;;;;5120288;28;19924;-80
2023/01/22 05:56:48;;;;;;;;;;;0.70;99.90;;;;;;5101239;28;19928;-80
2023/01/22 05:59:14;;;;;;;;;;;0.60;99.90;;;;;;5137213;28;19924;-79
2023/01/22 06:01:39;;;;;;;;;;;0.70;99.90;;;;;;5148664;27;19934;-80
2023/01/22 06:04:05;;;;;;;;;;;0.70;99.90;;;;;;5116367;28;20055;-79
2023/01/22 06:06:30;;;;;;;;;;;0.70;99.90;;;;;;5107561;28;20341;-79
2023/01/22 06:08:56;;;;;;;;;;;0.60;99.90;;;;;;5117937;28;19924;-79
2023/01/22 06:11:21;;;;;;;;;;;0.60;99.90;;;;;;5121688;28;19923;-80
2023/01/22 06:13:47;;;;;;;;;;;0.60;99.90;;;;;;5109802;27;19934;-79
2023/01/22 06:16:13;;;;;;;;;;;0.60;99.90;;;;;;5130409;28;19923;-80
2023/01/22 06:18:38;;;;;;;;;;;0.60;99.90;;;;;;5104472;28;19923;-79
2023/01/22 06:21:05;;;;;;;;;;;0.60;99.90;;;;;;5118139;28;19978;-79
2023/01/22 06:23:31;;;;;;;;;;;0.60;99.90;;;;;;5122332;28;20010;-79
2023/01/22 06:25:57;;;;;;;;;;;0.50;99.90;;;;;;5106391;28;20388;-79
2023/01/22 06:28:23;;;;;;;;;;;0.60;99.90;;;;;;5122536;28;19924;-79
2023/01/22 06:30:49;;;;;;;;;;;0.50;99.90;;;;;;5119170;27;19927;-79
2023/01/22 06:33:15;;;;;;;;;;;0.50;99.90;;;;;;5121707;28;20528;-79
2023/01/22 06:35:41;;;;;;;;;;;0.60;99.90;;;;;;5139303;28;19924;-79
2023/01/22 06:38:06;;;;;;;;;;;0.50;99.90;;;;;;5118058;28;19924;-79
2023/01/22 06:40:33;;;;;;;;;;;0.50;99.90;;;;;;5104109;28;19953;-79
2023/01/22 06:43:05;;;;;;;;;;;0.50;99.90;;;;;;5119456;28;19935;-79
2023/01/22 06:45:31;;;;;;;;;;;0.50;99.90;;;;;;5121982;28;19923;-79
2023/01/22 06:47:57;;;;;;;;;;;0.50;99.90;;;;;;5120530;28;19953;-79
2023/01/22 06:50:22;;;;;;;;;;;0.50;99.90;;;;;;5104386;28;19923;-79
2023/01/22 06:52:48;;;;;;;;;;;0.50;99.90;;;;;;5109737;28;19934;-79
2023/01/22 06:55:13;;;;;;;;;;;0.50;99.90;;;;;;5104219;28;20556;-79
2023/01/22 06:57:39;;;;;;;;;;;0.50;99.90;;;;;;5121639;28;20006;-79
2023/01/22 07:00:05;;;;;;;;;;;0.50;99.90;;;;;;5122623;27;19994;-79
2023/01/22 07:02:31;;;;;;;;;;;0.50;99.90;;;;;;5126719;27;19945;-79
2023/01/22 07:04:57;;;;;;;;;;;0.50;99.90;;;;;;5103224;27;19924;-79
2023/01/22 07:07:22;;;;;;;;;;;0.50;99.90;;;;;;5124722;27;19987;-79
2023/01/22 07:09:48;;;;;;;;;;;0.50;99.90;;;;;;5107582;27;19923;-80
2023/01/22 07:12:13;;;;;;;;;;;0.50;99.90;;;;;;5120813;28;19928;-80
2023/01/22 07:14:39;;;;;;;;;;;0.50;99.90;;;;;;5139048;27;19969;-80
2023/01/22 07:17:05;;;;;;;;;;;0.50;99.90;;;;;;5124068;27;19927;-79
2023/01/22 07:19:30;;;;;;;;;;;0.50;99.90;;;;;;5091522;27;19924;-79
2023/01/22 07:21:56;;;;;;;;;;;0.50;99.90;;;;;;5141939;27;20005;-80
2023/01/22 07:24:22;;;;;;;;;;;0.50;99.90;;;;;;5122692;27;19934;-80
2023/01/22 07:26:48;;;;;;;;;;;0.50;99.90;;;;;;5123498;27;19924;-80
2023/01/22 07:29:13;;;;;;;;;;;0.40;99.90;;;;;;5106318;27;19923;-80
2023/01/22 07:31:39;;;;;;;;;;;0.40;99.90;;;;;;5124616;27;19978;-80
2023/01/22 07:34:05;;;;;;;;;;;0.40;99.90;;;;;;5105802;27;19973;-80
2023/01/22 07:36:31;;;;;;;;;;;0.50;99.90;;;;;;5123462;27;19923;-80
2023/01/22 07:38:56;;;;;;;;;;;0.40;99.90;;;;;;5123674;27;19930;-80
2023/01/22 07:41:22;;;;;;;;;;;0.40;99.90;;;;;;5125046;27;19927;-79
2023/01/22 07:43:48;;;;;;;;;;;0.30;99.90;;;;;;5125100;27;19927;-79
2023/01/22 07:46:13;;;;;;;;;;;0.40;99.90;;;;;;5119416;27;19959;-80
2023/01/22 07:48:39;;;;;;;;;;;0.40;99.90;;;;;;5124272;27;19931;-81
2023/01/22 07:51:05;;;;;;;;;;;0.40;99.90;;;;;;5123591;27;19946;-79
2023/01/22 07:53:31;;;;;;;;;;;0.40;99.90;;;;;;5124574;27;19927;-80
2023/01/22 07:55:56;;;;;;;;;;;0.40;99.90;;;;;;5122395;27;19929;-80
2023/01/22 07:58:22;;;;;;;;;;;0.40;99.90;;;;;;5118589;28;19935;-80
2023/01/22 08:00:48;;;;;;;;;;;0.40;99.90;;;;;;5096696;27;19970;-80
2023/01/22 08:03:14;;;;;;;;;;;0.40;99.90;;;;;;5122665;27;19924;-80
2023/01/22 08:05:40;;;;;;;;;;;0.40;99.90;;;;;;5123129;27;19927;-80
2023/01/22 08:08:06;;;;;;;;;;;0.40;99.90;;;;;;5110629;27;19928;-80
2023/01/22 08:10:31;;;;;;;;;;;0.40;99.90;;;;;;5123640;27;19930;-79
2023/01/22 08:12:57;;;;;;;;;;;0.40;99.90;;;;;;5123386;27;19962;-79
2023/01/22 08:15:23;;;;;;;;;;;0.50;99.90;;;;;;5125063;27;19924;-79
2023/01/22 08:17:49;;;;;;;;;;;0.50;99.90;;;;;;5117781;28;19931;-79
2023/01/22 08:20:15;;;;;;;;;;;0.50;99.90;;;;;;5119295;27;20366;-79
2023/01/22 08:22:41;;;;;;;;;;;0.50;99.90;;;;;;5141588;27;19928;-80
2023/01/22 08:25:07;;;;;;;;;;;0.50;99.90;;;;;;5123167;27;19923;-80
2023/01/22 08:27:35;;;;;;;;;;;0.60;99.90;;;;;;5120549;27;19971;-79
2023/01/22 08:30:02;;;;;;;;;;;0.50;99.90;;;;;;5113318;27;19927;-80
2023/01/22 08:32:27;;;;;;;;;;;0.60;99.90;;;;;;5123701;27;19949;-80
2023/01/22 08:34:53;;;;;;;;;;;0.50;99.90;;;;;;5140607;27;19959;-79
2023/01/22 08:37:22;;;;;;;;;;;0.60;99.90;;;;;;5119209;28;19953;-79
2023/01/22 08:39:47;;;;;;;;;;;0.60;99.90;;;;;;5096599;27;19927;-80
2023/01/22 08:42:13;;;;;;;;;;;0.50;99.90;;;;;;5095688;27;19935;-80
2023/01/22 08:44:38;;;;;;;;;;;0.70;99.90;;;;;;5102537;27;19923;-80
2023/01/22 08:47:04;;;;;;;;;;;0.60;99.90;;;;;;5116384;27;19930;-80
2023/01/22 08:49:30;;;;;;;;;;;0.70;99.90;;;;;;5104460;27;20670;-81
2023/01/22 08:51:55;;;;;;;;;;;0.60;99.90;;;;;;5086859;27;19959;-81
2023/01/22 08:54:21;;;;;;;;;;;0.70;99.90;;;;;;5115080;27;19928;-80
2023/01/22 08:56:47;;;;;;;;;;;0.70;99.90;;;;;;5105188;27;20659;-80
2023/01/22 08:59:13;;;;;;;;;;;0.70;99.90;;;;;;5119751;27;19928;-80
2023/01/22 09:01:39;;;;;;;;;;;0.70;99.90;;;;;;5122566;27;19966;-80
2023/01/22 09:04:08;;;;;;;;;;;0.70;99.90;;;;;;5100946;27;19980;-80
2023/01/22 09:06:34;;;;;;;;;;;0.70;99.90;;;;;;5121961;27;19930;-80
2023/01/22 09:09:00;;;;;;;;;;;0.70;99.90;;;;;;5115736;28;19927;-79
2023/01/22 09:11:28;;;;;;;;;;;0.70;99.90;;;;;;5115332;27;19930;-80
2023/01/22 09:13:55;;;;;;;;;;;0.80;99.90;;;;;;5115433;28;20076;-79
2023/01/22 09:16:20;;;;;;;;;;;0.80;99.90;;;;;;5113984;27;19923;-80
2023/01/22 09:18:46;;;;;;;;;;;0.80;99.90;;;;;;5118498;27;19971;-80
2023/01/22 09:21:12;;;;;;;;;;;0.80;99.90;;;;;;5119231;27;19945;-80
2023/01/22 09:23:37;;;;;;;;;;;0.80;99.90;;;;;;5122542;27;19962;-80
2023/01/22 09:26:03;;;;;;;;;;;0.80;99.90;;;;;;5115616;27;19935;-80
2023/01/22 09:28:28;;;;;;;;;;;0.80;99.90;;;;;;5103282;27;19930;-80
2023/01/22 09:30:54;;;;;;;;;;;0.90;99.90;;;;;;5118035;27;20004;-80
2023/01/22 09:33:20;;;;;;;;;;;0.90;99.90;;;;;;5140736;27;19931;-80
2023/01/22 09:35:45;;;;;;;;;;;1.00;99.90;;;;;;5118111;28;19923;-79
2023/01/22 09:38:14;;;;;;;;;;;1.00;99.90;;;;;;5137949;27;19976;-79
2023/01/22 09:40:47;;;;;;;;;;;1.00;99.90;;;;;;5121512;28;20030;-79
2023/01/22 09:43:15;;;;;;;;;;;1.00;99.90;;;;;;5138167;27;19923;-80
2023/01/22 09:45:41;;;;;;;;;;;1.10;99.90;;;;;;5120630;28;19927;-79
2023/01/22 09:48:11;;;;;;;;;;;1.20;99.90;;;;;;5102680;28;19924;-79
2023/01/22 09:50:37;;;;;;;;;;;1.10;99.90;;;;;;5121757;28;19923;-79
2023/01/22 09:53:04;;;;;;;;;;;1.20;99.90;;;;;;5121282;28;19929;-79
2023/01/22 09:55:32;;;;;;;;;;;1.10;99.90;;;;;;5104517;28;20429;-79
2023/01/22 09:58:00;;;;;;;;;;;1.20;99.90;;;;;;5113436;28;19931;-79
2023/01/22 10:00:28;;;;;;;;;;;1.20;99.90;;;;;;5121177;28;20395;-79
2023/01/22 10:03:02;;;;;;;;;;;1.20;99.90;;;;;;5122185;28;19923;-79
2023/01/22 10:05:38;;;;;;;;;;;1.20;99.90;;;;;;5121255;28;20666;-79
2023/01/22 10:08:06;;;;;;;;;;;1.20;99.90;;;;;;5115655;28;19928;-79
2023/01/22 10:10:32;;;;;;;;;;;1.20;99.90;;;;;;5110321;28;19945;-80
2023/01/22 10:12:57;;;;;;;;;;;1.20;99.90;;;;;;5130203;27;19927;-79
2023/01/22 10:15:23;;;;;;;;;;;1.20;99.90;;;;;;5094803;28;19931;-79
2023/01/22 10:17:49;;;;;;;;;;;1.20;99.90;;;;;;5103608;28;20071;-79
2023/01/22 10:20:17;;;;;;;;;;;1.20;99.90;;;;;;5116596;28;19967;-79
2023/01/22 10:22:43;;;;;;;;;;;1.20;99.90;;;;;;5121142;28;19965;-79
2023/01/22 10:25:12;;;;;;;;;;;1.20;99.90;;;;;;5104519;28;19928;-79
2023/01/22 10:27:38;;;;;;;;;;;1.20;99.90;;;;;;5107149;28;19924;-79
2023/01/22 10:30:07;;;;;;;;;;;1.20;99.90;;;;;;5113716;28;19931;-79
2023/01/22 10:32:33;;;;;;;;;;;1.30;99.90;;;;;;5140086;27;20369;-79
2023/01/22 10:35:11;;;;;;;;;;;1.30;99.90;;;;;;5118358;27;19924;-79
2023/01/22 10:37:47;;;;;;;;;;;1.30;99.90;;;;;;5130913;27;19930;-79
2023/01/22 10:40:32;;;;;;;;;;;1.50;99.90;;;;;;5102579;28;20010;-79
2023/01/22 10:43:03;;;;;;;;;;;1.60;99.90;;;;;;5117985;27;19949;-80
2023/01/22 10:45:29;;;;;;;;;;;1.70;99.90;;;;;;5118622;27;19924;-80
2023/01/22 10:48:08;;;;;;;;;;;1.90;99.90;;;;;;5109166;27;19944;-80
2023/01/22 10:50:33;;;;;;;;;;;2.00;99.90;;;;;;5116844;27;19934;-80
2023/01/22 10:52:59;;;;;;;;;;;2.10;99.90;;;;;;5118914;27;19931;-79
2023/01/22 10:55:29;;;;;;;;;;;2.20;99.90;;;;;;5118029;27;19982;-79
2023/01/22 10:58:02;;;;;;;;;;;2.30;99.90;;;;;;5119819;27;20407;-79
2023/01/22 11:00:32;;;;;;;;;;;2.30;99.90;;;;;;5117123;27;19923;-79
2023/01/22 11:02:58;;;;;;;;;;;2.30;99.90;;;;;;5107172;27;19932;-80
2023/01/22 11:05:25;;;;;;;;;;;2.20;99.90;;;;;;5097777;28;19934;-80
2023/01/22 11:07:53;;;;;;;;;;;2.20;99.90;;;;;;5109840;27;19924;-79
2023/01/22 11:10:18;;;;;;;;;;;2.20;99.90;;;;;;5119643;27;19927;-79
2023/01/22 11:12:46;;;;;;;;;;;2.20;99.90;;;;;;5121275;27;19958;-80
2023/01/22 11:15:20;;;;;;;;;;;2.20;99.90;;;;;;5141667;27;19950;-79
2023/01/22 11:17:48;;;;;;;;;;;2.10;99.90;;;;;;5121641;27;20042;-80
2023/01/22 11:20:23;;;;;;;;;;;2.10;99.90;;;;;;5117979;27;19939;-79
2023/01/22 11:23:12;;;;;;;;;;;2.10;99.90;;;;;;5133710;27;19931;-79
2023/01/22 11:25:43;;;;;;;;;;;2.10;99.90;;;;;;5085599;27;19928;-78
2023/01/22 11:28:18;;;;;;;;;;;2.00;99.90;;;;;;5113058;27;19974;-79
2023/01/22 11:30:53;;;;;;;;;;;2.00;99.90;;;;;;5111777;27;19955;-79
2023/01/22 11:33:24;;;;;;;;;;;2.00;99.90;;;;;;5111754;27;19939;-79
2023/01/22 11:35:53;;;;;;;;;;;2.00;99.90;;;;;;5137233;27;20488;-80
2023/01/22 11:38:22;;;;;;;;;;;2.00;99.90;;;;;;5110688;27;20019;-80
2023/01/22 11:41:06;;;;;;;;;;;2.00;99.90;;;;;;5113456;27;19931;-80
2023/01/22 11:43:54;;;;;;;;;;;2.10;99.90;;;;;;5116702;27;20007;-80
2023/01/22 11:46:25;;;;;;;;;;;2.10;99.90;;;;;;5120464;27;19949;-80
2023/01/22 11:49:03;;;;;;;;;;;2.00;99.90;;;;;;5107239;28;19928;-79
2023/01/22 11:51:32;;;;;;;;;;;2.10;99.90;;;;;;5118241;27;19923;-80
2023/01/22 11:54:10;;;;;;;;;;;2.00;99.90;;;;;;5117474;27;19976;-79
2023/01/22 11:56:59;;;;;;;;;;;2.00;99.90;;;;;;5118935;27;19923;-79
2023/01/22 11:59:45;;;;;;;;;;;2.10;99.90;;;;;;5110213;27;19970;-79
2023/01/22 12:02:16;;;;;;;;;;;2.10;99.90;;;;;;5089770;27;19924;-79
2023/01/22 12:04:48;;;;;;;;;;;2.20;99.90;;;;;;5132828;27;19931;-80
2023/01/22 12:07:22;;;;;;;;;;;2.20;99.90;;;;;;5120317;27;19983;-79
2023/01/22 12:09:54;;;;;;;;;;;2.30;99.90;;;;;;5096824;27;19924;-80
2023/01/22 12:12:26;;;;;;;;;;;2.30;99.90;;;;;;5119669;27;20361;-79
2023/01/22 12:15:11;;;;;;;;;;;2.30;99.90;;;;;;5121581;27;20014;-79
2023/01/22 12:17:50;;;;;;;;;;;2.30;99.90;;;;;;5103124;27;19928;-79
2023/01/22 12:20:32;;;;;;;;;;;2.30;99.90;;;;;;5102419;27;19961;-79
2023/01/22 12:23:10;;;;;;;;;;;2.20;99.90;;;;;;5114981;27;20078;-79
2023/01/22 12:25:39;;;;;;;;;;;2.20;99.90;;;;;;5123934;27;19939;-79
2023/01/22 12:28:11;;;;;;;;;;;2.20;99.90;;;;;;5113675;27;19945;-79
2023/01/22 12:30:42;;;;;;;;;;;2.30;99.90;;;;;;5110917;27;19934;-80
2023/01/22 12:33:11;;;;;;;;;;;2.30;99.90;;;;;;5105034;27;19931;-79
2023/01/22 12:35:36;;;;;;;;;;;2.40;99.90;;;;;;5116101;27;19938;-79
2023/01/22 12:38:17;;;;;;;;;;;2.50;99.90;;;;;;5106818;27;19927;-79
2023/01/22 12:40:51;;;;;;;;;;;2.50;99.90;;;;;;5094067;27;19976;-80
2023/01/22 12:43:19;;;;;;;;;;;2.50;99.90;;;;;;5112323;27;19927;-79
2023/01/22 12:46:17;;;;;;;;;;;2.50;99.90;;;;;;5109258;27;19924;-79
2023/01/22 12:48:55;;;;;;;;;;;2.40;99.90;;;;;;5073255;27;19995;-79
2023/01/22 12:51:26;;;;;;;;;;;2.40;99.90;;;;;;5112301;27;19987;-79
2023/01/22 12:53:51;;;;;;;;;;;2.40;99.90;;;;;;5117270;27;19927;-79
2023/01/22 12:56:28;;;;;;;;;;;2.30;99.90;;;;;;5100346;28;20018;-79
2023/01/22 12:58:57;;;;;;;;;;;2.30;99.90;;;;;;5089438;27;19967;-80
2023/01/22 13:01:24;;;;;;;;;;;2.20;99.90;;;;;;5112596;27;19939;-79
2023/01/22 13:03:58;;;;;;;;;;;2.30;99.90;;;;;;5114052;27;19930;-79
2023/01/22 13:06:34;;;;;;;;;;;2.30;99.90;;;;;;5114336;27;19927;-80
2023/01/22 13:09:00;;;;;;;;;;;2.30;99.90;;;;;;5114734;27;20421;-79
2023/01/22 13:11:43;;;;;;;;;;;2.20;99.90;;;;;;5124750;27;19945;-79
2023/01/22 13:14:21;;;;;;;;;;;2.30;99.90;;;;;;5093800;27;20308;-80
2023/01/22 13:16:52;;;;;;;;;;;2.30;99.90;;;;;;5118078;27;19923;-79
2023/01/22 13:19:22;;;;;;;;;;;2.30;99.90;;;;;;5109954;27;19951;-79
2023/01/22 13:21:48;;;;;;;;;;;2.30;99.90;;;;;;5115197;27;19947;-79
2023/01/22 13:24:15;;;;;;;;;;;2.30;99.90;;;;;;5112378;27;20108;-79
2023/01/22 13:26:48;;;;;;;;;;;2.30;99.90;;;;;;5130322;27;19927;-79
2023/01/22 13:29:13;;;;;;;;;;;2.30;99.90;;;;;;5113121;27;20980;-79
2023/01/22 13:31:39;;;;;;;;;;;2.30;99.90;;;;;;5090342;27;19990;-80
2023/01/22 13:34:07;;;;;;;;;;;2.30;99.90;;;;;;5093790;27;19932;-79
2023/01/22 13:36:37;;;;;;;;;;;2.30;99.90;;;;;;5108145;27;19966;-79
2023/01/22 13:39:03;;;;;;;;;;;2.30;99.90;;;;;;5104944;27;19924;-80
2023/01/22 13:41:33;;;;;;;;;;;2.30;99.90;;;;;;5113950;28;19970;-80
2023/01/22 13:43:59;;;;;;;;;;;2.30;99.90;;;;;;5127135;27;20876;-80
2023/01/22 13:46:27;;;;;;;;;;;2.30;99.90;;;;;;5110793;27;19944;-78
2023/01/22 13:49:09;;;;;;;;;;;2.30;99.90;;;;;;5109051;28;19924;-79
2023/01/22 13:51:35;;;;;;;;;;;2.30;99.90;;;;;;5091650;28;20413;-79
2023/01/22 13:54:02;;;;;;;;;;;2.30;99.90;;;;;;5113496;28;19931;-79
2023/01/22 13:56:28;;;;;;;;;;;2.30;99.90;;;;;;5112560;28;19938;-79
2023/01/22 13:59:13;;;;;;;;;;;2.30;99.90;;;;;;5109759;28;19928;-80
2023/01/22 14:01:39;;;;;;;;;;;2.30;99.90;;;;;;5110674;28;19934;-79
2023/01/22 14:04:05;;;;;;;;;;;2.30;99.90;;;;;;5094812;28;20392;-79
2023/01/22 14:06:45;;;;;;;;;;;2.30;99.90;;;;;;5094504;28;19924;-79
2023/01/22 14:09:10;;;;;;;;;;;2.30;99.90;;;;;;5115350;27;20022;-79
2023/01/22 14:11:36;;;;;;;;;;;2.30;99.90;;;;;;5119405;27;19932;-80
2023/01/22 14:14:12;;;;;;;;;;;2.30;99.90;;;;;;5117092;27;19934;-79
2023/01/22 14:16:39;;;;;;;;;;;2.30;99.90;;;;;;5134384;27;20027;-79
2023/01/22 14:19:05;;;;;;;;;;;2.30;99.90;;;;;;5095661;27;19928;-79
2023/01/22 14:21:31;;;;;;;;;;;2.30;99.90;;;;;;5115195;27;19935;-80
2023/01/22 14:23:57;;;;;;;;;;;2.30;99.90;;;;;;5136552;27;19976;-78
2023/01/22 14:26:22;;;;;;;;;;;2.30;99.90;;;;;;5116432;27;19928;-80
2023/01/22 14:28:48;;;;;;;;;;;2.30;99.90;;;;;;5119126;27;20344;-79
2023/01/22 14:31:14;;;;;;;;;;;2.30;99.90;;;;;;5117200;27;20030;-80
2023/01/22 14:33:39;;;;;;;;;;;2.20;99.90;;;;;;5115968;27;19934;-79
2023/01/22 14:36:05;;;;;;;;;;;2.20;99.90;;;;;;5113132;27;20014;-79
2023/01/22 14:38:31;;;;;;;;;;;2.20;99.90;;;;;;5117424;27;19923;-80
2023/01/22 14:40:56;;;;;;;;;;;2.20;99.90;;;;;;5118569;27;20458;-80